Time;durP1;ratioP1;P1;durP2;ratioP2;P2;SDS_P1;SDS_P2;PMS_P1;PMS_P2;Temp;Humidity;BMP_temperature;BMP_pressure;BME280_temperature;BME280_humidity;BME280_pressure;Samples;Min_cycle;Max_cycle;Signal;HPM_P1;HPM_P2
2021/08/27 00:01:53;;;;;;;31.48;25.00;;;;;;;21.18;100.00;96489.81;5065290;28;20059;-65
2021/08/27 00:04:20;;;;;;;28.83;25.05;;;;;;;21.22;100.00;96490.47;5065220;28;20131;-65
2021/08/27 00:06:46;;;;;;;27.25;24.33;;;;;;;21.29;100.00;96495.09;5065493;28;20044;-64
2021/08/27 00:09:13;;;;;;;29.17;23.23;;;;;;;21.27;100.00;96492.72;5065447;28;20052;-65
2021/08/27 00:11:40;;;;;;;29.88;23.77;;;;;;;21.27;100.00;96492.72;5064904;28;20059;-64
2021/08/27 00:14:06;;;;;;;27.88;23.02;;;;;;;21.21;100.00;96500.19;5065025;28;20056;-64
2021/08/27 00:16:33;;;;;;;30.50;23.83;;;;;;;20.77;100.00;96470.25;5064812;28;20055;-64
2021/08/27 00:19:00;;;;;;;28.77;24.02;;;;;;;20.89;100.00;96497.59;5064594;28;20058;-66
2021/08/27 00:21:26;;;;;;;31.10;24.45;;;;;;;20.71;100.00;96460.75;5063870;28;20135;-64
2021/08/27 00:23:53;;;;;;;29.73;22.90;;;;;;;20.78;100.00;96441.63;5065352;28;20055;-64
2021/08/27 00:26:20;;;;;;;31.13;25.35;;;;;;;21.05;100.00;96500.31;5064768;28;20412;-66
2021/08/27 00:28:47;;;;;;;34.35;24.98;;;;;;;20.69;100.00;96441.50;5063492;28;20048;-65
2021/08/27 00:31:13;;;;;;;30.65;24.52;;;;;;;20.99;100.00;96488.06;5064121;28;20057;-64
2021/08/27 00:33:40;;;;;;;30.85;23.95;;;;;;;21.02;100.00;96486.34;5064488;28;20429;-64
2021/08/27 00:36:07;;;;;;;28.08;24.67;;;;;;;20.99;100.00;96482.41;5063453;28;20056;-64
2021/08/27 00:38:33;;;;;;;31.02;25.65;;;;;;;20.50;100.00;96419.25;5065229;28;20052;-65
2021/08/27 00:41:00;;;;;;;32.70;24.83;;;;;;;20.81;100.00;96476.53;5064362;28;20059;-64
2021/08/27 00:43:27;;;;;;;30.75;25.08;;;;;;;20.89;100.00;96477.88;5064314;28;20053;-66
2021/08/27 00:45:53;;;;;;;30.92;25.27;;;;;;;20.76;100.00;96461.00;5064260;28;20044;-64
2021/08/27 00:48:20;;;;;;;36.55;25.30;;;;;;;20.80;100.00;96469.34;5062735;28;20045;-65
2021/08/27 00:50:47;;;;;;;38.33;25.90;;;;;;;20.85;100.00;96465.94;5064276;28;20052;-65
2021/08/27 00:53:15;;;;;;;30.40;25.70;;;;;;;20.75;100.00;96459.41;5063143;28;20049;-65
2021/08/27 00:55:44;;;;;;;33.83;27.30;;;;;;;20.70;100.00;96459.19;5064267;28;20143;-65
2021/08/27 00:58:12;;;;;;;37.90;28.30;;;;;;;20.61;100.00;96461.91;5062559;28;20052;-65
2021/08/27 01:00:39;;;;;;;39.05;26.85;;;;;;;20.57;100.00;96467.63;5062837;28;20061;-64
2021/08/27 01:03:08;;;;;;;37.90;29.45;;;;;;;20.32;100.00;96438.69;5062849;28;20057;-64
2021/08/27 01:05:39;;;;;;;39.22;28.08;;;;;;;20.60;100.00;96478.00;5064136;28;20052;-64
2021/08/27 01:08:15;;;;;;;40.75;30.27;;;;;;;20.19;100.00;96418.19;5062883;28;20451;-65
2021/08/27 01:10:46;;;;;;;37.78;27.17;;;;;;;20.57;100.00;96464.03;5064368;28;20470;-65
2021/08/27 01:13:21;;;;;;;34.88;27.05;;;;;;;20.54;100.00;96462.09;5063901;28;20051;-65
2021/08/27 01:16:06;;;;;;;34.97;26.80;;;;;;;20.64;100.00;96477.88;5064111;28;20956;-65
2021/08/27 01:19:09;;;;;;;31.63;25.17;;;;;;;20.41;100.00;96419.09;5067877;28;20056;-65
2021/08/27 01:22:02;;;;;;;31.92;24.88;;;;;;;20.62;100.00;96475.53;5064403;28;20056;-64
2021/08/27 01:24:29;;;;;;;34.22;26.98;;;;;;;20.54;100.00;96471.34;5064427;28;20056;-65
2021/08/27 01:27:02;;;;;;;39.13;30.25;;;;;;;20.62;100.00;96469.09;5063912;28;20435;-65
2021/08/27 01:29:38;;;;;;;41.22;29.40;;;;;;;20.65;100.00;96462.56;5063655;28;20189;-65
2021/08/27 01:32:17;;;;;;;40.75;29.58;;;;;;;20.67;100.00;96460.09;5063906;28;20048;-65
2021/08/27 01:34:45;;;;;;;44.92;30.48;;;;;;;20.61;100.00;96450.66;5062628;28;20052;-66
2021/08/27 01:37:15;;;;;;;35.60;28.70;;;;;;;20.68;100.00;96456.03;5063988;28;20525;-64
2021/08/27 01:39:49;;;;;;;35.25;28.95;;;;;;;20.74;100.00;96448.59;5063733;28;20063;-64
2021/08/27 01:42:21;;;;;;;34.88;26.98;;;;;;;20.82;100.00;96438.69;5078938;28;20048;-64
2021/08/27 01:44:51;;;;;;;34.55;26.58;;;;;;;20.88;100.00;96445.34;5063119;28;20048;-64
2021/08/27 01:47:21;;;;;;;31.55;25.05;;;;;;;19.19;100.00;96171.53;5062283;28;20135;-64
2021/08/27 01:49:50;;;;;;;35.83;25.13;;;;;;;20.84;100.00;96441.84;5063737;28;20058;-63
2021/08/27 01:52:18;;;;;;;33.60;27.50;;;;;;;20.76;100.00;96440.50;5063412;28;20642;-65
2021/08/27 01:54:47;;;;;;;36.97;27.30;;;;;;;20.63;100.00;96442.50;5064006;28;20052;-63
2021/08/27 01:57:14;;;;;;;30.73;25.95;;;;;;;20.74;100.00;96465.47;5063765;28;20056;-63
2021/08/27 01:59:44;;;;;;;32.35;25.95;;;;;;;20.69;100.00;96460.44;5063281;28;20044;-65
2021/08/27 02:02:14;;;;;;;34.08;25.50;;;;;;;20.74;100.00;96455.03;5061950;28;20052;-64
2021/08/27 02:04:46;;;;;;;32.70;26.00;;;;;;;20.74;100.00;96468.28;5063389;28;20053;-66
2021/08/27 02:07:14;;;;;;;31.27;24.55;;;;;;;20.68;100.00;96461.66;5063610;28;20058;-62
2021/08/27 02:09:41;;;;;;;36.17;25.90;;;;;;;20.65;100.00;96454.91;5063076;28;20048;-66
2021/08/27 02:12:08;;;;;;;33.10;24.67;;;;;;;20.61;100.00;96473.16;5063280;28;20064;-65
2021/08/27 02:14:38;;;;;;;33.42;25.17;;;;;;;20.21;100.00;96449.47;5063485;28;20055;-66
2021/08/27 02:17:06;;;;;;;27.05;22.17;;;;;;;19.87;100.00;96384.63;5061521;28;20056;-65
2021/08/27 02:19:34;;;;;;;27.30;23.35;;;;;;;20.43;100.00;96456.03;5062720;28;20053;-68
2021/08/27 02:22:05;;;;;;;32.35;23.35;;;;;;;20.29;100.00;96445.22;5063045;28;20131;-64
2021/08/27 02:24:36;;;;;;;29.08;25.80;;;;;;;20.40;100.00;96471.00;5063172;28;20052;-65
2021/08/27 02:27:06;;;;;;;31.65;25.98;;;;;;;20.37;100.00;96469.09;5063533;28;20049;-67
2021/08/27 02:29:36;;;;;;;35.47;27.67;;;;;;;20.07;100.00;96473.16;5063442;28;20056;-63
2021/08/27 02:32:06;;;;;;;32.53;25.92;;;;;;;19.77;100.00;96402.56;5063316;28;20063;-64
2021/08/27 02:34:37;;;;;;;32.60;26.50;;;;;;;20.01;100.00;96455.25;5061788;28;20241;-64
2021/08/27 02:37:06;;;;;;;41.72;28.35;;;;;;;19.74;100.00;96459.66;5063429;28;20064;-66
2021/08/27 02:39:33;;;;;;;40.08;29.88;;;;;;;19.24;100.00;96395.59;5062900;28;20056;-67
2021/08/27 02:42:00;;;;;;;44.10;30.20;;;;;;;19.58;100.00;96413.53;5062985;28;20059;-67
2021/08/27 02:44:27;;;;;;;45.65;32.80;;;;;;;19.75;100.00;96416.28;5063135;28;20052;-64
2021/08/27 02:46:54;;;;;;;43.55;32.65;;;;;;;19.92;100.00;96443.88;5062493;28;20579;-66
2021/08/27 02:49:20;;;;;;;40.25;30.08;;;;;;;19.96;100.00;96455.03;5063055;28;20059;-64
2021/08/27 02:52:06;;;;;;;37.78;28.10;;;;;;;19.95;100.00;96439.41;5061361;28;20083;-65
2021/08/27 02:54:40;;;;;;;36.88;26.92;;;;;;;19.85;100.00;96437.66;5063735;28;20063;-66
2021/08/27 02:57:07;;;;;;;32.95;25.95;;;;;;;19.72;100.00;96428.41;5066363;28;20060;-64
2021/08/27 02:59:36;;;;;;;30.08;25.20;;;;;;;19.76;100.00;96457.22;5065396;28;20060;-66
2021/08/27 03:02:04;;;;;;;32.90;26.00;;;;;;;19.76;100.00;96462.84;5066417;28;20055;-63
2021/08/27 03:05:00;;;;;;;27.95;23.85;;;;;;;19.80;100.00;96471.94;5066259;28;20059;-65
2021/08/27 03:07:29;;;;;;;26.48;21.42;;;;;;;19.87;100.00;96471.75;5081876;28;20064;-66
2021/08/27 03:10:27;;;;;;;26.95;21.55;;;;;;;19.90;100.00;96473.66;5066187;28;20053;-66
2021/08/27 03:12:56;;;;;;;25.42;21.10;;;;;;;19.94;100.00;96468.72;5066026;28;20049;-67
2021/08/27 03:15:27;;;;;;;24.00;20.65;;;;;;;19.99;100.00;96471.00;5066795;28;20053;-67
2021/08/27 03:18:02;;;;;;;26.30;22.17;;;;;;;19.82;100.00;96466.69;5064794;28;20051;-65
2021/08/27 03:20:50;;;;;;;26.70;22.42;;;;;;;19.97;100.00;96476.25;5065589;28;20482;-64
2021/08/27 03:23:19;;;;;;;26.33;21.55;;;;;;;19.89;100.00;96472.88;5065843;28;20366;-64
2021/08/27 03:25:47;;;;;;;29.45;23.83;;;;;;;19.90;100.00;96468.06;5066043;28;20052;-64
2021/08/27 03:28:22;;;;;;;28.23;22.73;;;;;;;19.87;100.00;96469.72;5065428;28;20048;-66
2021/08/27 03:30:51;;;;;;;27.70;22.80;;;;;;;20.08;100.00;96462.69;5065804;28;20056;-64
2021/08/27 03:33:20;;;;;;;26.55;22.15;;;;;;;20.08;100.00;96468.31;5065332;28;20048;-67
2021/08/27 03:35:49;;;;;;;27.95;21.90;;;;;;;20.13;100.00;96476.19;5065708;28;20051;-66
2021/08/27 03:38:17;;;;;;;26.77;21.77;;;;;;;20.07;100.00;96478.00;5065465;28;20056;-67
2021/08/27 03:40:45;;;;;;;25.73;22.52;;;;;;;20.15;100.00;96479.41;5065419;28;20060;-65
2021/08/27 03:43:14;;;;;;;26.98;22.98;;;;;;;20.13;100.00;96479.00;5065382;28;20060;-67
2021/08/27 03:45:41;;;;;;;31.92;23.85;;;;;;;20.25;100.00;96476.25;5064957;28;20553;-68
2021/08/27 03:48:09;;;;;;;27.77;22.35;;;;;;;20.19;100.00;96474.44;5064738;28;20060;-64
2021/08/27 03:50:36;;;;;;;24.63;21.95;;;;;;;20.25;100.00;96467.06;5065168;28;20056;-68
2021/08/27 03:53:06;;;;;;;25.17;21.73;;;;;;;20.32;100.00;96461.19;5065081;28;20497;-64
2021/08/27 03:55:34;;;;;;;28.92;21.63;;;;;;;20.29;100.00;96450.84;5063390;28;20060;-66
2021/08/27 03:58:02;;;;;;;27.08;23.02;;;;;;;20.26;100.00;96432.03;5064870;28;20654;-65
2021/08/27 04:00:37;;;;;;;26.52;20.75;;;;;;;20.39;100.00;96460.97;5064935;28;20056;-63
2021/08/27 04:03:05;;;;;;;22.58;19.83;;;;;;;20.28;100.00;96455.66;5065339;28;20487;-63
2021/08/27 04:05:32;;;;;;;23.80;19.38;;;;;;;20.08;100.00;96417.69;5064615;28;20052;-64
2021/08/27 04:07:59;;;;;;;23.63;19.02;;;;;;;20.39;100.00;96483.50;5064126;28;20052;-65
2021/08/27 04:10:26;;;;;;;24.95;19.75;;;;;;;19.98;100.00;96421.63;5065175;28;20067;-67
2021/08/27 04:12:52;;;;;;;22.25;19.70;;;;;;;20.26;100.00;96482.69;5064574;28;20052;-64
2021/08/27 04:15:22;;;;;;;26.48;20.00;;;;;;;19.33;100.00;96337.59;5065118;28;20056;-66
2021/08/27 04:17:50;;;;;;;22.63;18.48;;;;;;;20.16;100.00;96486.59;5065183;28;20155;-66
2021/08/27 04:20:17;;;;;;;24.02;18.77;;;;;;;20.13;100.00;96481.81;5064663;28;20125;-67
2021/08/27 04:22:44;;;;;;;25.35;19.88;;;;;;;20.06;100.00;96471.56;5063536;28;20079;-66
2021/08/27 04:25:11;;;;;;;31.73;21.23;;;;;;;19.68;100.00;96427.72;5064861;28;20059;-67
2021/08/27 04:27:38;;;;;;;29.73;21.90;;;;;;;20.02;100.00;96482.16;5062686;28;20056;-63
2021/08/27 04:30:05;;;;;;;22.15;19.45;;;;;;;20.24;100.00;96485.13;5064668;28;20052;-65
2021/08/27 04:32:32;;;;;;;25.92;21.15;;;;;;;20.28;100.00;96483.03;5064981;28;20056;-64
2021/08/27 04:34:59;;;;;;;23.35;20.08;;;;;;;20.27;100.00;96464.56;5064703;28;20048;-64
2021/08/27 04:37:26;;;;;;;23.20;19.35;;;;;;;20.32;100.00;96472.44;5063252;28;20059;-64
2021/08/27 04:39:53;;;;;;;23.30;20.80;;;;;;;20.25;100.00;96472.66;5064673;28;20600;-64
2021/08/27 04:42:19;;;;;;;30.33;21.67;;;;;;;20.41;100.00;96481.00;5064030;28;20590;-65
2021/08/27 04:44:46;;;;;;;28.23;23.33;;;;;;;20.38;100.00;96487.53;5062690;28;20049;-68
2021/08/27 04:47:13;;;;;;;27.05;22.65;;;;;;;20.24;100.00;96454.19;5064149;28;20052;-65
2021/08/27 04:49:40;;;;;;;25.70;21.75;;;;;;;20.26;100.00;96446.09;5064044;28;20071;-67
2021/08/27 04:52:07;;;;;;;28.05;22.95;;;;;;;20.46;100.00;96494.50;5062582;28;20082;-67
2021/08/27 04:54:34;;;;;;;28.33;25.08;;;;;;;20.17;100.00;96448.81;5064393;28;20063;-67
2021/08/27 04:57:01;;;;;;;30.63;23.30;;;;;;;20.43;100.00;96484.16;5064071;28;20049;-67
2021/08/27 04:59:28;;;;;;;31.33;22.08;;;;;;;19.98;100.00;96408.34;5064126;28;20487;-64
2021/08/27 05:01:54;;;;;;;25.00;22.30;;;;;;;20.49;100.00;96488.78;5064309;28;20056;-68
2021/08/27 05:04:22;;;;;;;24.73;21.90;;;;;;;20.60;100.00;96480.00;5064242;28;20132;-67
2021/08/27 05:06:48;;;;;;;25.65;21.15;;;;;;;20.61;100.00;96479.56;5063914;28;20136;-68
2021/08/27 05:09:17;;;;;;;26.55;21.92;;;;;;;20.67;100.00;96454.47;5064112;28;20392;-67
2021/08/27 05:11:44;;;;;;;23.98;21.40;;;;;;;20.63;100.00;96448.16;5063744;28;20060;-67
2021/08/27 05:14:11;;;;;;;25.27;20.75;;;;;;;20.69;100.00;96457.63;5064083;28;20063;-63
2021/08/27 05:16:38;;;;;;;22.70;20.38;;;;;;;20.98;100.00;96469.56;5062216;28;20055;-68
2021/08/27 05:19:05;;;;;;;27.92;21.02;;;;;;;20.70;99.14;96425.41;5063635;28;20064;-68
2021/08/27 05:21:31;;;;;;;21.20;19.00;;;;;;;21.10;98.31;96477.22;5063532;28;20060;-67
2021/08/27 05:23:58;;;;;;;23.58;19.85;;;;;;;20.93;99.88;96467.28;5062017;28;20052;-64
2021/08/27 05:26:25;;;;;;;22.38;19.98;;;;;;;20.92;100.00;96472.13;5063431;28;20523;-64
2021/08/27 05:28:52;;;;;;;25.02;20.55;;;;;;;20.87;100.00;96471.91;5062152;28;20048;-64
2021/08/27 05:31:19;;;;;;;26.13;21.02;;;;;;;20.99;100.00;96471.16;5063112;28;20056;-64
2021/08/27 05:33:45;;;;;;;25.10;20.92;;;;;;;21.09;100.00;96466.41;5062023;28;20521;-69
2021/08/27 05:36:12;;;;;;;22.23;19.90;;;;;;;20.66;100.00;96419.13;5063576;28;20044;-64
2021/08/27 05:38:39;;;;;;;25.98;21.60;;;;;;;20.84;100.00;96450.28;5063374;28;20044;-64
2021/08/27 05:41:06;;;;;;;26.73;23.85;;;;;;;20.78;100.00;96446.47;5063734;28;20052;-67
2021/08/27 05:43:33;;;;;;;28.60;24.83;;;;;;;20.62;100.00;96438.13;5061974;28;20049;-67
2021/08/27 05:46:01;;;;;;;30.92;24.65;;;;;;;20.41;100.00;96421.91;5063287;28;20505;-63
2021/08/27 05:48:28;;;;;;;28.88;25.55;;;;;;;20.35;100.00;96437.78;5062073;28;20052;-67
2021/08/27 05:50:55;;;;;;;34.85;28.05;;;;;;;20.36;100.00;96462.66;5062267;28;20053;-63
2021/08/27 05:53:21;;;;;;;38.63;29.58;;;;;;;20.37;100.00;96497.22;5079054;28;20516;-66
2021/08/27 05:55:48;;;;;;;37.03;26.73;;;;;;;20.15;100.00;96535.63;5063237;28;20061;-64
2021/08/27 05:58:15;;;;;;;34.17;27.00;;;;;;;20.02;100.00;96571.31;5061767;28;20048;-62
2021/08/27 06:00:42;;;;;;;23.38;14.30;;;;;;;19.62;100.00;96586.88;5063303;28;20048;-62
2021/08/27 06:03:09;;;;;;;10.23;6.05;;;;;;;18.98;100.00;96661.38;5063106;28;20131;-62
2021/08/27 08:10:42;;;;;;;1.00;1.00;;;;;;;23.16;91.84;96568.81;5101593;27;20380;-69
2021/08/27 08:13:09;;;;;;;1.20;1.20;;;;;;;23.19;91.90;96548.13;5099602;28;20517;-67
2021/08/27 08:15:36;;;;;;;1.30;1.30;;;;;;;23.53;85.51;96581.88;5099865;28;20834;-66
2021/08/27 08:18:04;;;;;;;1.85;1.77;;;;;;;23.29;90.40;96561.03;5101062;28;20182;-65
2021/08/27 08:20:31;;;;;;;1.27;1.27;;;;;;;23.57;86.13;96576.84;5099964;28;20048;-65
2021/08/27 08:23:00;;;;;;;1.60;1.60;;;;;;;23.20;83.62;96560.97;5100976;28;20052;-69
2021/08/27 08:25:27;;;;;;;1.30;1.30;;;;;;;23.32;88.60;96520.53;5100715;28;20052;-65
2021/08/27 08:27:53;;;;;;;1.50;1.50;;;;;;;23.88;80.97;96560.56;5100572;28;20044;-67
2021/08/27 08:30:20;;;;;;;1.40;1.40;;;;;;;23.98;77.47;96561.41;5100595;28;20355;-66
2021/08/27 08:32:47;;;;;;;1.42;1.42;;;;;;;24.20;76.25;96559.22;5100918;28;20048;-65
2021/08/27 08:35:14;;;;;;;1.38;1.38;;;;;;;24.27;79.06;96562.50;5101618;28;20059;-69
2021/08/27 08:37:41;;;;;;;2.90;1.98;;;;;;;24.33;75.79;96565.50;5099944;28;20131;-66
2021/08/27 08:40:09;;;;;;;1.30;1.30;;;;;;;24.34;74.05;96567.06;5099817;28;20146;-66
2021/08/27 08:42:37;;;;;;;2.45;1.98;;;;;;;24.03;77.02;96563.63;5101182;28;20693;-66
2021/08/27 08:45:04;;;;;;;1.80;1.73;;;;;;;24.08;74.96;96563.75;5100005;28;20460;-65
2021/08/27 08:47:35;;;;;;;1.10;1.10;;;;;;;23.92;74.23;96529.31;5100258;28;20593;-68
2021/08/27 08:50:04;;;;;;;1.33;1.33;;;;;;;24.23;74.21;96567.56;5100657;28;20591;-66
2021/08/27 08:52:35;;;;;;;1.50;1.50;;;;;;;23.84;70.80;96484.34;5099486;28;20113;-66
2021/08/27 08:55:04;;;;;;;1.35;1.35;;;;;;;24.32;72.91;96559.06;5100042;28;20047;-69
2021/08/27 08:57:31;;;;;;;1.40;1.40;;;;;;;24.41;72.54;96544.88;5100621;28;20043;-70
2021/08/27 08:59:58;;;;;;;1.73;1.63;;;;;;;24.30;72.20;96516.25;5100058;28;20052;-70
2021/08/27 09:02:27;;;;;;;1.40;1.40;;;;;;;24.53;74.16;96552.41;5077573;28;20139;-68
2021/08/27 09:04:54;;;;;;;3.58;3.38;;;;;;;24.57;76.51;96535.25;5080048;28;20094;-67
2021/08/27 09:07:23;;;;;;;2.10;2.00;;;;;;;24.72;73.95;96530.56;5078123;28;20155;-66
2021/08/27 09:09:50;;;;;;;1.58;1.58;;;;;;;24.84;71.26;96555.88;5076211;28;20057;-70
2021/08/27 09:12:27;;;;;;;1.77;1.77;;;;;;;24.85;73.44;96545.31;5065941;28;20056;-69
2021/08/27 09:15:09;;;;;;;1.40;1.40;;;;;;;24.47;73.10;96429.69;5066447;28;20105;-64
2021/08/27 09:17:42;;;;;;;1.50;1.50;;;;;;;25.46;73.20;96515.63;5065721;28;20058;-65
2021/08/27 09:20:11;;;;;;;1.58;1.58;;;;;;;25.62;68.44;96523.75;5066158;28;20063;-66
2021/08/27 09:22:53;;;;;;;1.85;1.85;;;;;;;25.52;66.64;96542.06;5065626;28;20059;-65
2021/08/27 09:25:41;;;;;;;1.60;1.60;;;;;;;25.44;66.00;96518.94;5064676;28;20106;-70
2021/08/27 09:28:12;;;;;;;1.60;1.60;;;;;;;25.45;70.74;96511.22;5066416;28;20068;-71
2021/08/27 09:30:52;;;;;;;1.60;1.60;;;;;;;25.51;65.63;96512.13;5066404;28;20168;-64
2021/08/27 09:33:22;;;;;;;1.70;1.70;;;;;;;25.60;65.21;96503.56;5064347;28;20052;-64
2021/08/27 09:36:01;;;;;;;1.55;1.55;;;;;;;25.43;67.96;96510.91;5064828;28;20059;-70
2021/08/27 09:38:41;;;;;;;4.82;3.13;;;;;;;25.56;63.64;96517.16;5065915;28;20495;-64
2021/08/27 09:41:10;;;;;;;1.80;1.80;;;;;;;25.62;64.82;96507.50;5064777;28;20610;-63
2021/08/27 09:43:47;;;;;;;1.67;1.67;;;;;;;25.81;62.11;96499.66;5066146;28;20575;-64
2021/08/27 09:46:43;;;;;;;2.35;2.25;;;;;;;26.04;61.25;96498.84;5066152;28;20056;-68
2021/08/27 09:49:36;;;;;;;1.75;1.75;;;;;;;26.01;60.24;96497.00;5066206;28;20062;-69
2021/08/27 09:52:12;;;;;;;1.60;1.60;;;;;;;26.15;60.02;96488.53;5064389;28;20577;-64
2021/08/27 09:54:43;;;;;;;1.75;1.75;;;;;;;26.02;60.87;96490.06;5064107;28;20059;-70
2021/08/27 09:57:12;;;;;;;1.65;1.65;;;;;;;26.09;59.42;96464.13;5065267;28;20161;-69
2021/08/27 09:59:44;;;;;;;1.40;1.40;;;;;;;24.59;57.39;96205.00;5064656;28;20052;-70
2021/08/27 10:02:13;;;;;;;1.67;1.67;;;;;;;26.41;56.66;96488.75;5083315;28;20052;-63
2021/08/27 10:04:54;;;;;;;1.52;1.52;;;;;;;26.49;57.29;96485.03;5084382;28;20083;-63
2021/08/27 10:07:28;;;;;;;1.80;1.80;;;;;;;26.52;57.38;96471.91;5083897;28;20079;-62
2021/08/27 10:09:59;;;;;;;2.00;1.92;;;;;;;26.52;57.33;96483.28;5084839;28;20538;-63
2021/08/27 10:12:34;;;;;;;1.70;1.70;;;;;;;26.45;57.19;96466.59;5084229;28;20551;-68
2021/08/27 10:15:03;;;;;;;2.13;2.03;;;;;;;26.59;60.64;96471.50;5085978;28;20520;-69
2021/08/27 10:17:30;;;;;;;1.80;1.80;;;;;;;26.65;58.14;96435.50;5084347;28;20051;-62
2021/08/27 10:19:57;;;;;;;1.55;1.55;;;;;;;27.03;57.59;96460.91;5084676;28;20441;-71
2021/08/27 10:22:24;;;;;;;1.65;1.65;;;;;;;26.85;55.75;96432.72;5082465;28;20048;-62
2021/08/27 10:24:51;;;;;;;2.00;1.90;;;;;;;26.85;57.69;96466.84;5083904;28;20048;-70
2021/08/27 10:27:18;;;;;;;1.70;1.70;;;;;;;26.38;58.50;96438.59;5084957;28;20044;-70
2021/08/27 10:29:54;;;;;;;4.63;2.05;;;;;;;26.63;58.44;96460.75;5085632;28;20059;-62
2021/08/27 10:32:38;;;;;;;1.67;1.67;;;;;;;26.71;59.76;96461.94;5085676;28;20280;-69
2021/08/27 10:35:09;;;;;;;1.67;1.67;;;;;;;27.07;58.26;96452.97;5083961;28;20064;-69
2021/08/27 10:37:42;;;;;;;2.25;2.15;;;;;;;27.23;60.82;96421.16;5083903;28;20048;-62
2021/08/27 10:40:36;;;;;;;2.42;2.28;;;;;;;27.07;58.39;96447.28;5083612;28;20051;-69
2021/08/27 10:43:03;;;;;;;10.35;6.88;;;;;;;26.87;59.21;96441.56;5085118;28;20044;-69
2021/08/27 10:45:33;;;;;;;5.70;5.18;;;;;;;27.33;59.72;96433.22;5085408;28;20056;-69
2021/08/27 10:48:26;;;;;;;7.97;7.10;;;;;;;27.33;58.97;96433.22;5084415;28;20581;-69
2021/08/27 10:50:55;;;;;;;8.05;5.60;;;;;;;27.34;59.72;96429.09;5083540;28;20429;-69
2021/08/27 10:53:30;;;;;;;5.20;4.80;;;;;;;27.73;59.11;96425.47;5084619;28;20044;-70
2021/08/27 10:56:03;;;;;;;5.57;5.03;;;;;;;28.03;60.96;96426.13;5084621;28;20051;-61
2021/08/27 10:58:51;;;;;;;5.90;5.28;;;;;;;25.73;57.97;96121.06;5084889;28;20056;-62
2021/08/27 11:01:32;;;;;;;5.43;4.93;;;;;;;28.07;54.07;96410.38;5083407;28;20059;-70
2021/08/27 11:04:02;;;;;;;5.07;4.68;;;;;;;27.22;57.03;96413.13;5084411;28;20063;-70
2021/08/27 11:06:31;;;;;;;8.20;6.30;;;;;;;27.43;59.41;96409.81;5082568;28;20502;-62
2021/08/27 11:09:28;;;;;;;9.75;5.47;;;;;;;27.84;58.33;96419.91;5083694;28;20087;-61
2021/08/27 11:12:08;;;;;;;5.75;5.25;;;;;;;28.08;54.72;96417.63;5083902;28;20047;-69
2021/08/27 11:14:37;;;;;;;5.47;4.97;;;;;;;27.66;54.10;96331.22;5084479;28;20224;-70
2021/08/27 11:17:06;;;;;;;5.90;5.13;;;;;;;28.26;56.08;96375.84;5083229;28;20084;-71
2021/08/27 11:19:50;;;;;;;5.63;5.07;;;;;;;28.82;54.69;96409.28;5082664;28;20063;-69
2021/08/27 11:22:27;;;;;;;5.93;4.95;;;;;;;29.18;53.62;96402.84;5082577;28;20562;-70
2021/08/27 11:25:10;;;;;;;5.93;4.72;;;;;;;29.38;52.29;96416.97;5082646;28;20052;-61
2021/08/27 11:27:38;;;;;;;7.35;6.30;;;;;;;29.46;54.45;96406.66;5084244;28;20206;-62
2021/08/27 11:30:27;;;;;;;6.70;5.15;;;;;;;29.64;54.05;96434.78;5082487;28;20094;-62
2021/08/27 11:32:55;;;;;;;6.22;5.05;;;;;;;29.92;54.48;96398.56;5084024;28;20139;-63
2021/08/27 11:35:23;;;;;;;6.93;5.88;;;;;;;30.09;53.43;96402.25;5082439;28;20048;-68
2021/08/27 11:37:58;;;;;;;6.68;5.55;;;;;;;30.05;53.58;96395.22;5082046;28;20145;-69
2021/08/27 11:40:26;;;;;;;5.75;4.80;;;;;;;29.47;48.67;96326.22;5083772;28;20060;-65
2021/08/27 11:42:55;;;;;;;8.63;5.53;;;;;;;29.64;49.91;96332.00;5082348;28;20136;-64
2021/08/27 11:45:26;;;;;;;7.38;5.78;;;;;;;29.80;51.27;96362.69;5082294;28;20082;-63
2021/08/27 11:47:55;;;;;;;6.25;5.65;;;;;;;29.88;51.60;96340.91;5082497;28;20080;-64
2021/08/27 11:50:30;;;;;;;7.00;5.85;;;;;;;30.27;49.08;96367.50;5082041;28;20474;-69
2021/08/27 11:52:59;;;;;;;6.25;5.22;;;;;;;30.32;50.04;96369.59;5081853;28;20048;-62
2021/08/27 11:55:26;;;;;;;6.65;5.43;;;;;;;30.39;49.99;96356.88;5083025;28;20155;-63
2021/08/27 11:57:58;;;;;;;6.93;5.63;;;;;;;30.39;51.06;96356.88;5083281;28;20066;-63
2021/08/27 12:00:31;;;;;;;9.80;6.22;;;;;;;30.28;46.11;96354.78;5083274;28;20521;-69
2021/08/27 12:02:58;;;;;;;8.15;5.97;;;;;;;30.22;45.92;96336.84;5081822;28;20505;-63
2021/08/27 12:05:27;;;;;;;7.80;5.88;;;;;;;30.48;45.64;96354.53;5082785;28;20083;-61
2021/08/27 12:07:54;;;;;;;5.93;5.20;;;;;;;30.04;46.76;96313.66;5083373;28;20132;-65
2021/08/27 12:10:22;;;;;;;7.97;5.95;;;;;;;29.99;46.20;96298.06;5082810;28;20056;-70
2021/08/27 12:12:51;;;;;;;7.38;5.88;;;;;;;30.08;45.87;96303.53;5083174;28;20145;-70
2021/08/27 12:15:30;;;;;;;14.27;6.70;;;;;;;30.36;45.85;96307.25;5082964;28;20148;-67
2021/08/27 12:18:05;;;;;;;8.43;6.55;;;;;;;30.17;45.45;96322.50;5083452;28;20117;-68
2021/08/27 12:20:39;;;;;;;6.72;5.97;;;;;;;30.14;45.99;96347.19;5083161;28;20061;-63
2021/08/27 12:23:18;;;;;;;7.78;6.13;;;;;;;30.03;45.63;96335.75;5083318;28;20422;-68
2021/08/27 12:25:48;;;;;;;9.50;6.40;;;;;;;29.29;45.97;96337.28;5081418;28;20080;-63
2021/08/27 12:28:28;;;;;;;6.20;5.60;;;;;;;29.58;47.03;96345.44;5082958;28;20048;-69
2021/08/27 12:30:58;;;;;;;8.23;5.80;;;;;;;28.72;46.46;96303.19;5081263;28;20058;-69
2021/08/27 12:33:30;;;;;;;6.50;5.85;;;;;;;28.86;47.05;96324.28;5081548;28;20043;-70
2021/08/27 12:35:58;;;;;;;8.25;6.53;;;;;;;29.25;46.39;96323.25;5083236;28;20060;-69
2021/08/27 12:38:26;;;;;;;9.45;5.90;;;;;;;29.27;45.98;96286.44;5082675;28;20063;-63
2021/08/27 12:40:53;;;;;;;6.97;6.25;;;;;;;29.81;46.06;96332.84;5081478;28;20047;-64
2021/08/27 12:43:24;;;;;;;6.60;6.00;;;;;;;29.58;45.48;96299.75;5081195;28;20498;-69
2021/08/27 12:45:53;;;;;;;10.25;6.88;;;;;;;27.43;46.17;95902.63;5083161;28;20052;-69
2021/08/27 12:48:26;;;;;;;10.27;6.18;;;;;;;30.37;43.84;96328.00;5087621;28;20173;-70
2021/08/27 12:50:55;;;;;;;7.60;6.22;;;;;;;30.38;43.86;96327.50;5086056;28;20412;-63
2021/08/27 12:53:39;;;;;;;7.72;6.30;;;;;;;30.78;42.72;96327.00;5086555;28;20585;-70
2021/08/27 12:56:15;;;;;;;10.20;6.20;;;;;;;31.33;42.05;96325.34;5086381;28;20504;-64
2021/08/27 12:58:47;;;;;;;6.68;5.93;;;;;;;31.47;40.85;96329.97;5086682;28;20048;-64
2021/08/27 13:01:20;;;;;;;9.83;6.30;;;;;;;31.43;40.83;96329.47;5085483;28;20056;-64
2021/08/27 13:03:58;;;;;;;6.80;6.10;;;;;;;31.44;43.45;96337.53;5087063;28;20051;-70
2021/08/27 13:06:40;;;;;;;16.70;9.90;;;;;;;31.38;42.07;96327.41;5086606;28;20052;-64
2021/08/27 13:09:18;;;;;;;19.90;9.90;;;;;;;31.39;42.45;96346.13;5084388;28;20084;-64
2021/08/27 13:11:45;;;;;;;11.20;7.88;;;;;;;31.07;42.16;96330.59;5086340;28;20059;-64
2021/08/27 13:14:26;;;;;;;8.48;6.55;;;;;;;31.00;41.07;96316.81;5084862;28;20056;-64
2021/08/27 13:17:03;;;;;;;9.38;6.35;;;;;;;31.11;40.15;96336.84;5087299;28;20117;-64
2021/08/27 13:19:45;;;;;;;8.65;6.35;;;;;;;31.20;40.99;96333.69;5086038;28;20303;-64
2021/08/27 13:22:24;;;;;;;8.27;6.25;;;;;;;30.57;40.35;96305.66;5086105;28;20112;-67
2021/08/27 13:25:02;;;;;;;8.30;6.72;;;;;;;29.16;42.40;96205.72;5086511;28;20056;-68
2021/08/27 13:27:30;;;;;;;6.78;5.97;;;;;;;30.30;41.24;96317.91;5086467;28;20059;-70
2021/08/27 13:29:58;;;;;;;9.82;6.63;;;;;;;31.36;39.67;96324.28;5084865;28;20056;-64
2021/08/27 13:32:27;;;;;;;9.52;7.03;;;;;;;32.18;38.39;96331.72;5086776;28;20083;-64
2021/08/27 13:34:54;;;;;;;9.52;6.85;;;;;;;32.50;37.61;96266.81;5086421;28;20497;-69
2021/08/27 13:37:21;;;;;;;8.60;6.80;;;;;;;32.49;37.88;96334.13;5085960;28;20479;-69
2021/08/27 13:39:48;;;;;;;11.13;6.93;;;;;;;32.79;37.46;96294.72;5085821;28;20109;-69
2021/08/27 13:42:15;;;;;;;10.35;8.02;;;;;;;32.40;39.02;96334.44;5085984;28;20052;-64